LFRN 240500Z AUTO 29003KT 4900 BR FEW004 10/10 Q1031 BECMG 0300 FG VV///

ElémentsDécodage
LFRN Station météo située sur l'aérodrome de RENNES Saint-Jacques
240500Z émis le 24 du mois à 05h00 UTC
AUTO Bulletin édité par un automate
29003KT vent du 290°, 03 noeuds
4900 visibilité horizontale de 4900 mètres
BR brume
FEW004 nuages rares (1/8 à 2/8) à 400 pieds
10/10 température 10°C, point de rosée 10°C
 soit une humidité relative de 100%
Q1031 la pression au niveau de la mer (QNH) est de 1031 hPa
BECMG fluctuation du temps prévue
0300 visibilité horizontale de 300 mètres
FG brouillard
VV/// Visibilité verticale non disponible, le ciel n'est pas visible